Point Roberts, Washington
Current Conditions -  °F | °C
As of 5:00 PM on Monday 26 Jan 2015 (Local Time) from CYVR Reporting Station
Scattered Clouds Scattered Clouds  
Wind Chill: 42°   Ceiling: Unl
Heat Index: 45°   Visibility: 20mi
Dew Point: 43°   Wind: 5mph
Humidity: 93%   Direction: 280°W
Pressure: 29.9"   Gusts: NA
Location:  48.99°N, 123.08°W
Report Text: CYVR 270100Z 28004KT 20SM FEW011 SCT240 07/06 A2990 RMK SC1CI2 SLP126
Loading
Personal Weather Stations






























Interactive Weather Map New forecast layout! Learn more

10-Day Weather Forecast

Advertisements
Track Severe Weather on mobile